sensor_id;sensor_type;location;lat;lon;timestamp;temperature;humidity
6863;DHT22;3470;48.738;9.616;2023-03-01T00:01:08;-2.50;99.90
6863;DHT22;3470;48.738;9.616;2023-03-01T00:03:34;-2.50;99.90
6863;DHT22;3470;48.738;9.616;2023-03-01T00:06:01;-2.50;99.90
6863;DHT22;3470;48.738;9.616;2023-03-01T00:08:27;-2.50;99.90
6863;DHT22;3470;48.738;9.616;2023-03-01T00:11:07;-2.40;99.90
6863;DHT22;3470;48.738;9.616;2023-03-01T00:13:34;-2.40;99.90
6863;DHT22;3470;48.738;9.616;2023-03-01T00:16:04;-2.40;99.90
6863;DHT22;3470;48.738;9.616;2023-03-01T00:18:30;-2.50;99.90
6863;DHT22;3470;48.738;9.616;2023-03-01T00:20:56;-2.50;99.90
6863;DHT22;3470;48.738;9.616;2023-03-01T00:23:22;-2.40;99.90
6863;DHT22;3470;48.738;9.616;2023-03-01T00:25:48;-2.40;99.90
6863;DHT22;3470;48.738;9.616;2023-03-01T00:28:14;-2.40;99.90
6863;DHT22;3470;48.738;9.616;2023-03-01T00:30:39;-2.40;99.90
6863;DHT22;3470;48.738;9.616;2023-03-01T00:33:08;-2.50;99.90
6863;DHT22;3470;48.738;9.616;2023-03-01T00:35:34;-2.60;99.90
6863;DHT22;3470;48.738;9.616;2023-03-01T00:38:01;-2.70;99.90
6863;DHT22;3470;48.738;9.616;2023-03-01T00:40:28;-2.80;99.90
6863;DHT22;3470;48.738;9.616;2023-03-01T00:42:54;-2.90;99.90
6863;DHT22;3470;48.738;9.616;2023-03-01T00:45:20;-2.90;99.90
6863;DHT22;3470;48.738;9.616;2023-03-01T18:34:46;3.50;86.90
6863;DHT22;3470;48.738;9.616;2023-03-01T18:37:12;3.50;87.10
6863;DHT22;3470;48.738;9.616;2023-03-01T18:39:38;3.60;86.90
6863;DHT22;3470;48.738;9.616;2023-03-01T18:42:06;3.60;86.50
6863;DHT22;3470;48.738;9.616;2023-03-01T18:44:32;3.70;86.60
6863;DHT22;3470;48.738;9.616;2023-03-01T18:46:57;3.60;86.50
6863;DHT22;3470;48.738;9.616;2023-03-01T18:49:24;3.60;86.80
6863;DHT22;3470;48.738;9.616;2023-03-01T18:51:50;3.60;87.10
6863;DHT22;3470;48.738;9.616;2023-03-01T18:54:16;3.60;87.40
6863;DHT22;3470;48.738;9.616;2023-03-01T18:56:41;3.70;88.10
6863;DHT22;3470;48.738;9.616;2023-03-01T18:59:07;3.60;87.40
6863;DHT22;3470;48.738;9.616;2023-03-01T19:01:33;3.70;87.70
6863;DHT22;3470;48.738;9.616;2023-03-01T19:03:59;3.70;87.70
6863;DHT22;3470;48.738;9.616;2023-03-01T19:06:30;3.80;87.80
6863;DHT22;3470;48.738;9.616;2023-03-01T19:08:57;3.70;88.00
6863;DHT22;3470;48.738;9.616;2023-03-01T19:11:23;3.60;88.40
6863;DHT22;3470;48.738;9.616;2023-03-01T19:13:52;3.50;89.20
6863;DHT22;3470;48.738;9.616;2023-03-01T19:16:21;3.50;89.40
6863;DHT22;3470;48.738;9.616;2023-03-01T19:18:47;3.30;89.80
6863;DHT22;3470;48.738;9.616;2023-03-01T19:21:15;3.30;90.10
6863;DHT22;3470;48.738;9.616;2023-03-01T19:23:41;3.30;90.10
6863;DHT22;3470;48.738;9.616;2023-03-01T19:26:10;3.30;90.40
6863;DHT22;3470;48.738;9.616;2023-03-01T19:28:37;3.30;90.50
6863;DHT22;3470;48.738;9.616;2023-03-01T19:31:05;3.40;90.90
6863;DHT22;3470;48.738;9.616;2023-03-01T19:33:32;3.40;90.60
6863;DHT22;3470;48.738;9.616;2023-03-01T19:35:59;3.40;90.60
6863;DHT22;3470;48.738;9.616;2023-03-01T19:38:25;3.40;90.70
6863;DHT22;3470;48.738;9.616;2023-03-01T19:40:51;3.40;90.60
6863;DHT22;3470;48.738;9.616;2023-03-01T19:43:17;3.40;90.80
6863;DHT22;3470;48.738;9.616;2023-03-01T19:45:43;3.40;90.90
6863;DHT22;3470;48.738;9.616;2023-03-01T19:48:10;3.40;90.90
6863;DHT22;3470;48.738;9.616;2023-03-01T19:50:36;3.40;91.00
6863;DHT22;3470;48.738;9.616;2023-03-01T19:53:03;3.40;91.00
6863;DHT22;3470;48.738;9.616;2023-03-01T19:55:29;3.30;91.10
6863;DHT22;3470;48.738;9.616;2023-03-01T19:57:54;3.20;91.20
6863;DHT22;3470;48.738;9.616;2023-03-01T20:00:20;3.10;91.50
6863;DHT22;3470;48.738;9.616;2023-03-01T20:02:46;3.10;91.70
6863;DHT22;3470;48.738;9.616;2023-03-01T20:05:11;3.00;91.90
6863;DHT22;3470;48.738;9.616;2023-03-01T20:07:37;3.00;91.80
6863;DHT22;3470;48.738;9.616;2023-03-01T20:10:03;3.00;91.90
6863;DHT22;3470;48.738;9.616;2023-03-01T20:12:28;3.00;92.00
6863;DHT22;3470;48.738;9.616;2023-03-01T20:14:54;3.10;91.90
6863;DHT22;3470;48.738;9.616;2023-03-01T20:17:22;3.00;91.90
6863;DHT22;3470;48.738;9.616;2023-03-01T20:19:47;3.00;92.00
6863;DHT22;3470;48.738;9.616;2023-03-01T20:22:13;2.90;92.10
6863;DHT22;3470;48.738;9.616;2023-03-01T20:24:42;2.80;92.20
6863;DHT22;3470;48.738;9.616;2023-03-01T20:27:08;2.90;92.20
6863;DHT22;3470;48.738;9.616;2023-03-01T20:29:34;2.80;92.30
6863;DHT22;3470;48.738;9.616;2023-03-01T20:31:59;2.80;92.40
6863;DHT22;3470;48.738;9.616;2023-03-01T20:34:25;2.70;92.50
6863;DHT22;3470;48.738;9.616;2023-03-01T20:36:50;2.60;92.70
6863;DHT22;3470;48.738;9.616;2023-03-01T20:39:16;2.60;92.70
6863;DHT22;3470;48.738;9.616;2023-03-01T20:41:41;2.60;92.90
6863;DHT22;3470;48.738;9.616;2023-03-01T20:44:08;2.60;93.10
6863;DHT22;3470;48.738;9.616;2023-03-01T20:46:34;2.50;93.20
6863;DHT22;3470;48.738;9.616;2023-03-01T20:49:00;2.50;93.10
6863;DHT22;3470;48.738;9.616;2023-03-01T20:51:26;2.50;93.40
6863;DHT22;3470;48.738;9.616;2023-03-01T20:53:52;2.50;93.30
6863;DHT22;3470;48.738;9.616;2023-03-01T20:56:19;2.50;93.50
6863;DHT22;3470;48.738;9.616;2023-03-01T20:58:45;2.50;93.50
6863;DHT22;3470;48.738;9.616;2023-03-01T21:01:16;2.50;93.50
6863;DHT22;3470;48.738;9.616;2023-03-01T21:03:42;2.50;93.60
6863;DHT22;3470;48.738;9.616;2023-03-01T21:06:10;2.50;93.60
6863;DHT22;3470;48.738;9.616;2023-03-01T21:08:36;2.40;93.60
6863;DHT22;3470;48.738;9.616;2023-03-01T21:11:03;2.30;93.80
6863;DHT22;3470;48.738;9.616;2023-03-01T21:13:29;2.30;94.00
6863;DHT22;3470;48.738;9.616;2023-03-01T21:16:00;2.30;94.00
6863;DHT22;3470;48.738;9.616;2023-03-01T21:18:28;2.30;94.10
6863;DHT22;3470;48.738;9.616;2023-03-01T21:20:58;2.30;94.10
6863;DHT22;3470;48.738;9.616;2023-03-01T21:23:24;2.30;94.30
6863;DHT22;3470;48.738;9.616;2023-03-01T21:28:29;2.30;94.30
6863;DHT22;3470;48.738;9.616;2023-03-01T21:31:10;2.20;94.40
6863;DHT22;3470;48.738;9.616;2023-03-01T21:33:37;2.20;94.50
6863;DHT22;3470;48.738;9.616;2023-03-01T21:36:05;2.20;94.50
6863;DHT22;3470;48.738;9.616;2023-03-01T21:38:34;2.20;94.60
6863;DHT22;3470;48.738;9.616;2023-03-01T21:41:19;2.20;94.40
6863;DHT22;3470;48.738;9.616;2023-03-01T21:43:46;2.20;94.60
6863;DHT22;3470;48.738;9.616;2023-03-01T21:46:17;2.10;94.50
6863;DHT22;3470;48.738;9.616;2023-03-01T21:48:44;2.20;94.60
6863;DHT22;3470;48.738;9.616;2023-03-01T21:51:11;2.10;94.50
6863;DHT22;3470;48.738;9.616;2023-03-01T21:53:37;2.10;94.60
6863;DHT22;3470;48.738;9.616;2023-03-01T21:56:04;2.10;94.70
6863;DHT22;3470;48.738;9.616;2023-03-01T21:58:30;2.10;94.70
